Emerald, Pennsylvania
Current Conditions -  °F | °C
As of 2:51 AM on Saturday 25 Oct 2014 (Local Time) from KABE Reporting Station
Clear Clear  
Wind Chill: 46°   Ceiling: Unl
Heat Index: 46°   Visibility: 10mi
Dew Point: 31°   Wind: 0mph
Humidity: 56%   Direction: NA
Pressure: 29.91"   Gusts: NA
Location:  40.7371°N, 75.6374°W
Report Text: KABE 250651Z 00000KT 10SM CLR 08/M01 A2991 RMK AO2 SLP128 T00781006
Loading
Personal Weather Stations






























Interactive Weather Map New forecast layout! Learn more

10-Day Weather Forecast

Advertisements
Track Severe Weather on mobile